Impacts METAR Board
IDs:

KDEN - Denver Intl, CO, US

Updated at: 1800 UTC 22 Sep 2018
Potential Impact None Slight Moderate High
Time 22/06Z 22/07Z 22/08Z 22/09Z 22/10Z 22/11Z 22/12Z 22/13Z 22/14Z 22/15Z 22/16Z 22/17Z 22/18Z
Temp61 60 55 55 54 51 51 52 57 65 71 77 81
Dewpt42 42 42 42 42 42 42 43 43 41 40 28 20
Altim30.23 30.22 30.21 30.21 30.21 30.20 30.20 30.20 30.21 30.21 30.22 30.21 30.20
VIS10 10 10 10 10 10 10 10 10 10 10 10 10
CIG-- -- -- -- -- -- -- -- -- -- -- -- --
CoverCLRCLRCLRCLRCLRCLRCLRFEWFEWFEWFEWFEWFEW
FltCatVFRVFRVFRVFRVFRVFRVFRVFRVFRVFRVFRVFRVFR
WX--------------------------
WDir1801801702302302402402400240230220330
WSpd19 16 8 10 11 8 5 5 0 9 9 5 3
WGst27 24 -- -- -- -- -- -- -- -- -- -- --
Raw hourly METARs
KDEN 220553Z 18019G27KT 10SM CLR 16/06 A3023 RMK AO2 PK WND 18027/0546 SLP171 T01610056 10233 20156 58001
KDEN 220653Z 18016G24KT 10SM CLR 16/06 A3022 RMK AO2 SLP164 T01560056 402610067
KDEN 220753Z 17008KT 10SM CLR 13/06 A3021 RMK AO2 SLP165 T01280056
KDEN 220853Z 23010KT 10SM CLR 13/06 A3021 RMK AO2 SLP162 T01280056 56007
KDEN 220953Z 23011KT 10SM CLR 12/06 A3021 RMK AO2 SLP160 T01220056
KDEN 221053Z 24008KT 10SM CLR 11/06 A3020 RMK AO2 SLP162 T01060056
KDEN 221153Z 24005KT 10SM CLR 11/06 A3020 RMK AO2 SLP166 T01060056 10161 20106 55002
KDEN 221253Z 24005KT 10SM FEW080 11/06 A3020 RMK AO2 SLP171 T01110061
KDEN 221353Z 00000KT 10SM FEW200 14/06 A3021 RMK AO2 SLP174 T01390061
KDEN 221453Z 24009KT 10SM FEW200 18/05 A3021 RMK AO2 SLP166 T01830050 52004
KDEN 221553Z 23009KT 10SM FEW200 22/04 A3022 RMK AO2 SLP161 T02170044
KDEN 221653Z 22005KT 10SM FEW200 25/M02 A3021 RMK AO2 SLP156 T02501022
KDEN 221753Z 33003KT 10SM FEW200 27/M07 A3020 RMK AO2 SLP149 T02721067 10272 20094 58005



Page loaded:  18:27 UTC  |   11:27 AM Pacific  |   12:27 PM Mountain  |   01:27 PM Central  |   02:27 PM Eastern

 

ADVISORIES

FORECASTS

FORECASTS

OBSERVATIONS

USER TOOLS

ABOUT US